createdAt,value
2023-02-05T00:00:49.402Z,103725.25
2023-02-05T00:09:46.103Z,103721.22
2023-02-05T00:12:13.046Z,103725.09
2023-02-05T00:14:40.005Z,103729.25
2023-02-05T00:17:07.094Z,103732.25
2023-02-05T00:19:34.033Z,103732.53
2023-02-05T00:22:01.209Z,103739.00
2023-02-05T00:24:28.357Z,103747.84
2023-02-05T00:26:55.443Z,103729.09
2023-02-05T00:29:22.381Z,103726.91
2023-02-05T00:31:50.064Z,103734.22
2023-02-05T00:34:17.826Z,103723.69
2023-02-05T00:36:46.452Z,103723.94
2023-02-05T00:39:14.585Z,103727.84
2023-02-05T00:41:41.563Z,103712.97
2023-02-05T00:44:08.828Z,103721.31
2023-02-05T00:46:36.156Z,103720.50
2023-02-05T00:49:03.624Z,103721.84
2023-02-05T00:51:30.767Z,103733.66
2023-02-05T00:53:58.079Z,103732.38
2023-02-05T00:56:25.089Z,103738.41
2023-02-05T00:58:52.406Z,103724.88
2023-02-05T01:01:19.515Z,103732.81
2023-02-05T01:03:46.549Z,103737.81
2023-02-05T01:06:14.206Z,103733.94
2023-02-05T01:08:41.745Z,103722.94
2023-02-05T01:11:10.695Z,103725.75
2023-02-05T01:13:38.167Z,103719.28
2023-02-05T01:16:05.820Z,103719.28
2023-02-05T01:18:32.784Z,103719.50
2023-02-05T01:21:00.472Z,103726.22
2023-02-05T01:23:30.451Z,103720.34
2023-02-05T01:25:57.451Z,103723.16
2023-02-05T01:28:25.048Z,103732.44
2023-02-05T01:30:52.664Z,103733.97
2023-02-05T01:33:19.628Z,103743.03
2023-02-05T01:35:46.485Z,103734.81
2023-02-05T01:38:14.603Z,103741.75
2023-02-05T01:40:42.023Z,103736.38
2023-02-05T01:43:11.988Z,103731.84
2023-02-05T01:45:43.965Z,103748.66
2023-02-05T01:48:11.280Z,103750.88
2023-02-05T01:50:42.846Z,103739.66
2023-02-05T01:53:12.171Z,103738.38
2023-02-05T01:55:41.372Z,103746.34
2023-02-05T01:58:09.249Z,103756.69
2023-02-05T02:00:36.381Z,103754.38
2023-02-05T02:03:04.430Z,103759.72
2023-02-05T02:05:31.498Z,103769.22
2023-02-05T02:07:58.580Z,103771.41
2023-02-05T02:10:26.606Z,103778.09
2023-02-05T02:12:54.936Z,103778.09
2023-02-05T02:15:24.551Z,103782.22
2023-02-05T02:17:53.780Z,103782.84
2023-02-05T02:20:23.109Z,103790.00
2023-02-05T02:22:53.176Z,103794.75
2023-02-05T02:25:21.894Z,103789.38
2023-02-05T02:27:51.077Z,103796.06
2023-02-05T02:30:21.096Z,103812.63
2023-02-05T02:32:48.351Z,103808.38
2023-02-05T02:35:18.352Z,103804.69
2023-02-05T02:37:54.140Z,103804.69
2023-02-05T02:40:23.788Z,103804.09
2023-02-05T02:42:53.755Z,103796.97
2023-02-05T02:45:23.383Z,103795.44
2023-02-05T02:47:54.339Z,103797.84
2023-02-05T02:50:25.435Z,103796.13
2023-02-05T02:52:53.181Z,103809.06
2023-02-05T02:55:21.438Z,103799.78
2023-02-05T02:57:50.081Z,103799.41
2023-02-05T03:00:20.334Z,103798.06
2023-02-05T03:02:48.956Z,103808.03
2023-02-05T03:05:17.741Z,103803.28
2023-02-05T03:07:48.906Z,103809.34
2023-02-05T03:10:17.980Z,103825.31
2023-02-05T03:12:45.035Z,103836.28
2023-02-05T03:15:12.455Z,103859.16
2023-02-05T03:17:40.127Z,103870.34
2023-02-05T03:20:10.171Z,103863.88
2023-02-05T03:22:37.102Z,103868.88
2023-02-05T03:25:04.349Z,103884.84
2023-02-05T03:27:31.264Z,103905.31
2023-02-05T03:29:58.242Z,103909.41
2023-02-05T03:32:28.123Z,103917.19
2023-02-05T03:35:04.577Z,103920.63
2023-02-05T03:37:34.576Z,103931.19
2023-02-05T03:40:02.751Z,103923.00
2023-02-05T03:42:35.096Z,103915.06
2023-02-05T03:45:05.437Z,103933.13
2023-02-05T03:47:33.026Z,103941.53
2023-02-05T03:50:03.085Z,103954.03
2023-02-05T03:52:33.685Z,103965.91
2023-02-05T03:55:04.207Z,103964.81
2023-02-05T03:57:36.503Z,103964.19
2023-02-05T04:00:04.867Z,103966.38
2023-02-05T04:02:31.891Z,103979.50
2023-02-05T04:04:58.775Z,103985.97
2023-02-05T04:07:25.743Z,103975.19
2023-02-05T04:09:52.766Z,103984.72
2023-02-05T04:12:19.716Z,103984.72
2023-02-05T04:14:46.598Z,103985.31
2023-02-05T04:17:13.459Z,103994.81
2023-02-05T04:19:41.796Z,103997.84
2023-02-05T04:22:09.258Z,103994.19
2023-02-05T04:24:36.466Z,104003.44
2023-02-05T04:27:03.336Z,104001.06
2023-02-05T04:29:30.239Z,104016.81
2023-02-05T04:31:57.500Z,104025.00
2023-02-05T04:34:26.193Z,104024.34
2023-02-05T04:36:53.089Z,104025.44
2023-02-05T04:39:20.048Z,104035.16
2023-02-05T04:41:46.905Z,104039.88
2023-02-05T04:44:13.867Z,104041.81
2023-02-05T04:46:40.864Z,104057.56
2023-02-05T04:49:07.672Z,104053.03
2023-02-05T04:51:34.508Z,104070.69
2023-02-05T04:54:01.468Z,104072.44
2023-02-05T04:56:28.415Z,104071.78
2023-02-05T04:58:55.444Z,104076.75
2023-02-05T05:01:23.405Z,104079.97
2023-02-05T05:03:51.138Z,104066.84
2023-02-05T05:06:18.578Z,104074.16
2023-02-05T05:08:45.872Z,104097.22
2023-02-05T05:11:14.134Z,104100.03
2023-02-05T05:13:41.938Z,104092.94
2023-02-05T05:16:09.679Z,104089.91
2023-02-05T05:18:37.976Z,104094.88
2023-02-05T05:21:05.236Z,104079.81
2023-02-05T05:23:32.467Z,104094.88
2023-02-05T05:25:59.387Z,104102.41
2023-02-05T05:28:26.368Z,104098.97
2023-02-05T05:30:53.290Z,104105.88
2023-02-05T05:33:20.210Z,104097.03
2023-02-05T05:35:47.419Z,104098.53
2023-02-05T05:38:14.335Z,104093.81
2023-02-05T05:40:44.232Z,104103.28
2023-02-05T05:43:16.689Z,104106.53
2023-02-05T05:45:43.642Z,104106.53
2023-02-05T05:48:10.587Z,104107.59
2023-02-05T05:50:37.371Z,104117.53
2023-02-05T05:53:04.242Z,104126.34
2023-02-05T05:55:31.384Z,104137.53
2023-02-05T05:57:58.450Z,104139.72
2023-02-05T06:00:25.279Z,104138.84
2023-02-05T06:02:52.464Z,104142.72
2023-02-05T06:05:19.344Z,104158.03
2023-02-05T06:07:46.576Z,104169.00
2023-02-05T06:10:14.271Z,104172.47
2023-02-05T06:12:41.196Z,104172.66
2023-02-05T06:15:08.686Z,104170.94
2023-02-05T06:17:36.783Z,104173.06
2023-02-05T06:20:03.910Z,104180.59
2023-02-05T06:22:31.096Z,104181.88
2023-02-05T06:24:58.041Z,104178.66
2023-02-05T06:27:24.843Z,104180.38
2023-02-05T06:29:51.703Z,104182.31
2023-02-05T06:32:18.587Z,104182.75
2023-02-05T06:34:45.504Z,104187.91
2023-02-05T06:37:12.348Z,104191.78
2023-02-05T06:39:39.176Z,104182.31
2023-02-05T06:42:07.023Z,104197.41
2023-02-05T06:44:34.445Z,104191.16
2023-02-05T06:47:01.558Z,104201.50
2023-02-05T06:49:28.435Z,104207.31
2023-02-05T06:51:55.261Z,104221.97
2023-02-05T06:54:22.157Z,104226.69
2023-02-05T06:56:48.978Z,104240.91
2023-02-05T06:59:15.883Z,104238.75
2023-02-05T07:01:42.839Z,104237.69
2023-02-05T07:04:09.649Z,104237.47
2023-02-05T07:06:36.465Z,104227.59
2023-02-05T07:09:03.574Z,104247.41
2023-02-05T07:11:30.462Z,104238.13
2023-02-05T07:13:57.377Z,104246.13
2023-02-05T07:16:24.294Z,104247.22
2023-02-05T07:18:53.704Z,104253.00
2023-02-05T07:21:21.491Z,104246.53
2023-02-05T07:23:48.399Z,104250.41
2023-02-05T07:26:17.291Z,104266.38
2023-02-05T07:28:44.745Z,104264.41
2023-02-05T07:31:17.019Z,104270.44
2023-02-05T07:33:44.635Z,104251.69
2023-02-05T07:36:12.995Z,104254.69
2023-02-05T07:38:40.143Z,104266.94
2023-02-05T07:41:08.134Z,104277.09
2023-02-05T07:43:35.438Z,104282.91
2023-02-05T07:46:04.534Z,104286.78
2023-02-05T07:48:31.890Z,104282.25
2023-02-05T07:50:58.827Z,104285.25
2023-02-05T07:53:26.012Z,104289.13
2023-02-05T07:55:53.044Z,104287.16
2023-02-05T07:58:19.980Z,104293.81
2023-02-05T08:00:46.837Z,104294.03
2023-02-05T08:03:14.307Z,104293.97
2023-02-05T08:05:41.421Z,104295.91
2023-02-05T08:08:08.270Z,104287.91
2023-02-05T08:10:35.339Z,104301.91
2023-02-05T08:13:02.211Z,104316.16
2023-02-05T08:15:29.980Z,104320.22
2023-02-05T08:17:56.944Z,104317.81
2023-02-05T08:20:23.904Z,104310.66
2023-02-05T08:22:50.862Z,104325.13
2023-02-05T08:25:17.941Z,104325.75
2023-02-05T08:27:46.311Z,104342.81
2023-02-05T08:30:15.470Z,104346.25
2023-02-05T08:32:42.950Z,104344.97
2023-02-05T08:35:10.360Z,104332.41
2023-02-05T08:37:37.296Z,104332.19
2023-02-05T08:40:04.340Z,104338.22
2023-02-05T08:42:31.208Z,104332.38
2023-02-05T08:45:00.175Z,104336.94
2023-02-05T08:47:27.680Z,104342.94
2023-02-05T08:49:54.605Z,104345.75
2023-02-05T08:52:21.502Z,104351.38
2023-02-05T08:54:48.614Z,104348.09
2023-02-05T08:57:16.795Z,104356.53
2023-02-05T08:59:43.746Z,104350.06
2023-02-05T09:02:14.727Z,104361.06
2023-02-05T09:04:42.173Z,104354.59
2023-02-05T09:07:09.218Z,104352.66
2023-02-05T09:09:37.318Z,104364.97
2023-02-05T09:12:04.772Z,104355.44
2023-02-05T09:14:36.578Z,104355.66
2023-02-05T09:17:04.364Z,104348.34
2023-02-05T09:19:34.020Z,104338.63
2023-02-05T09:22:01.026Z,104358.06
2023-02-05T09:24:28.487Z,104373.44
2023-02-05T09:26:55.439Z,104369.97
2023-02-05T09:29:22.424Z,104364.81
2023-02-05T09:31:49.599Z,104359.22
2023-02-05T09:34:16.693Z,104358.56
2023-02-05T09:36:43.678Z,104354.88
2023-02-05T09:39:18.559Z,104352.31
2023-02-05T09:42:01.203Z,104365.91
2023-02-05T09:44:31.403Z,104369.38
2023-02-05T09:47:06.037Z,104360.13
2023-02-05T09:49:39.185Z,104368.97
2023-02-05T09:52:09.544Z,104372.63
2023-02-05T09:54:39.460Z,104371.78
2023-02-05T09:57:08.587Z,104362.06
2023-02-05T09:59:35.499Z,104366.81
2023-02-05T10:02:05.804Z,104369.22
2023-02-05T10:04:32.872Z,104370.94
2023-02-05T10:07:02.808Z,104368.34
2023-02-05T10:09:32.829Z,104371.63
2023-02-05T10:12:02.861Z,104367.94
2023-02-05T10:14:33.719Z,104373.56
2023-02-05T10:17:00.910Z,104374.63
2023-02-05T10:19:35.404Z,104366.22
2023-02-05T10:22:12.177Z,104354.38
2023-02-05T10:24:39.752Z,104343.97
2023-02-05T10:27:09.640Z,104344.41
2023-02-05T10:29:37.071Z,104356.72
2023-02-05T10:32:07.410Z,104358.25
2023-02-05T10:34:37.355Z,104360.19
2023-02-05T10:37:09.030Z,104346.38
2023-02-05T10:39:35.943Z,104346.41
2023-02-05T10:42:06.008Z,104342.09
2023-02-05T10:44:36.026Z,104328.06
2023-02-05T10:47:07.010Z,104327.44
2023-02-05T10:49:36.951Z,104334.53
2023-02-05T10:52:03.966Z,104321.75
2023-02-05T10:54:32.528Z,104326.91
2023-02-05T10:56:59.960Z,104326.25
2023-02-05T10:59:29.903Z,104339.81
2023-02-05T11:01:58.057Z,104327.91
2023-02-05T11:04:33.617Z,104322.97
2023-02-05T11:07:01.912Z,104318.00
2023-02-05T11:09:30.630Z,104307.16
2023-02-05T11:12:16.698Z,104318.84
2023-02-05T11:14:46.105Z,104339.97
2023-02-05T11:17:15.984Z,104348.84
2023-02-05T11:19:52.743Z,104341.69
2023-02-05T11:22:22.685Z,104330.19
2023-02-05T11:24:49.564Z,104341.63
2023-02-05T11:27:16.843Z,104335.56
2023-02-05T11:29:43.742Z,104335.97
2023-02-05T11:32:13.973Z,104327.94
2023-02-05T11:34:40.923Z,104328.13
2023-02-05T11:37:17.449Z,104320.75
2023-02-05T11:39:45.876Z,104339.50
2023-02-05T11:42:15.831Z,104326.47
2023-02-05T11:44:48.956Z,104332.06
2023-02-05T11:47:22.595Z,104332.25
2023-02-05T11:49:50.904Z,104337.78
2023-02-05T11:52:24.115Z,104342.72
2023-02-05T11:54:51.726Z,104335.56
2023-02-05T11:57:19.913Z,104328.41
2023-02-05T11:59:49.922Z,104328.56
2023-02-05T12:02:22.005Z,104323.13
2023-02-05T12:04:51.015Z,104314.00
2023-02-05T12:07:19.840Z,104316.13
2023-02-05T12:09:48.737Z,104308.94
2023-02-05T12:12:19.017Z,104310.81
2023-02-05T12:14:47.352Z,104305.59
2023-02-05T12:17:17.675Z,104312.47
2023-02-05T12:19:47.834Z,104309.19
2023-02-05T12:22:15.112Z,104307.63
2023-02-05T12:24:42.567Z,104304.34
2023-02-05T12:27:12.655Z,104301.91
2023-02-05T12:29:40.126Z,104315.53
2023-02-05T12:32:10.364Z,104313.63
2023-02-05T12:34:40.638Z,104311.88
2023-02-05T12:37:07.983Z,104318.97
2023-02-05T12:39:36.386Z,104308.75
2023-02-05T12:42:06.809Z,104300.34
2023-02-05T12:44:38.423Z,104299.59
2023-02-05T12:47:06.806Z,104296.09
2023-02-05T12:49:36.984Z,104298.91
2023-02-05T12:52:04.304Z,104297.13
2023-02-05T12:54:38.755Z,104302.53
2023-02-05T12:57:09.280Z,104297.13
2023-02-05T12:59:39.662Z,104296.25
2023-02-05T13:02:13.114Z,104293.59
2023-02-05T13:04:41.788Z,104289.72
2023-02-05T13:07:12.651Z,104294.88
2023-02-05T13:09:42.606Z,104301.56
2023-02-05T13:12:12.218Z,104290.97
2023-02-05T13:14:41.744Z,104295.94
2023-02-05T13:17:11.758Z,104289.25
2023-02-05T13:19:43.071Z,104272.75
2023-02-05T13:22:16.329Z,104273.16
2023-02-05T13:24:49.495Z,104286.53
2023-02-05T13:27:22.692Z,104292.53
2023-02-05T13:29:51.709Z,104284.88
2023-02-05T13:32:21.926Z,104270.09
2023-02-05T13:34:48.989Z,104279.78
2023-02-05T13:37:17.275Z,104285.19
2023-02-05T13:39:47.255Z,104280.56
2023-02-05T13:42:17.423Z,104275.09
2023-02-05T13:44:47.410Z,104282.84
2023-02-05T13:47:20.202Z,104286.03
2023-02-05T13:49:48.654Z,104259.13
2023-02-05T13:52:19.083Z,104262.13
2023-02-05T13:54:49.096Z,104256.00
2023-02-05T13:57:19.131Z,104250.53
2023-02-05T13:59:51.976Z,104250.91
2023-02-05T14:02:27.706Z,104246.75
2023-02-05T14:04:55.111Z,104251.91
2023-02-05T14:07:24.959Z,104244.94
2023-02-05T14:09:56.656Z,104248.38
2023-02-05T14:12:25.741Z,104246.19
2023-02-05T14:14:55.797Z,104248.75
2023-02-05T14:17:25.927Z,104251.34
2023-02-05T14:19:57.581Z,104241.78
2023-02-05T14:22:27.742Z,104242.66
2023-02-05T14:24:54.679Z,104249.75
2023-02-05T14:27:24.773Z,104236.53
2023-02-05T14:29:51.819Z,104236.28
2023-02-05T14:32:38.720Z,104228.31
2023-02-05T14:35:06.342Z,104235.66
2023-02-05T14:37:35.631Z,104224.88
2023-02-05T14:40:05.808Z,104226.84
2023-02-05T14:42:34.551Z,104226.22
2023-02-05T14:45:01.672Z,104228.78
2023-02-05T14:47:30.714Z,104244.22
2023-02-05T14:50:03.438Z,104232.34
2023-02-05T14:52:33.744Z,104228.06
2023-02-05T14:55:06.011Z,104221.78
2023-02-05T14:57:34.388Z,104214.69
2023-02-05T15:00:05.094Z,104222.28
2023-02-05T15:02:35.209Z,104217.97
2023-02-05T15:05:04.457Z,104211.00
2023-02-05T15:07:31.865Z,104199.59
2023-02-05T15:10:01.891Z,104189.44
2023-02-05T15:12:29.143Z,104194.69
2023-02-05T15:14:57.092Z,104198.22
2023-02-05T15:17:27.167Z,104203.00
2023-02-05T15:19:55.981Z,104201.28
2023-02-05T15:22:26.250Z,104197.41
2023-02-05T15:24:54.549Z,104216.91
2023-02-05T15:27:23.769Z,104213.69
2023-02-05T15:29:57.342Z,104205.75
2023-02-05T15:32:27.033Z,104208.41
2023-02-05T15:34:57.179Z,104229.69
2023-02-05T15:37:24.489Z,104226.00
2023-02-05T15:39:51.785Z,104235.63
2023-02-05T15:42:20.506Z,104245.78
2023-02-05T15:44:47.581Z,104243.19
2023-02-05T15:47:19.139Z,104248.22
2023-02-05T15:49:49.122Z,104249.53
2023-02-05T15:52:18.218Z,104255.16
2023-02-05T15:54:45.412Z,104256.13
2023-02-05T15:57:18.548Z,104262.63
2023-02-05T15:59:45.567Z,104256.56
2023-02-05T16:02:16.788Z,104250.56
2023-02-05T16:04:43.729Z,104240.16
2023-02-05T16:07:13.731Z,104242.13
2023-02-05T16:09:45.948Z,104241.50
2023-02-05T16:12:13.652Z,104250.19
2023-02-05T16:14:40.781Z,104235.72
2023-02-05T16:17:11.638Z,104238.59
2023-02-05T16:19:39.916Z,104239.47
2023-02-05T16:22:18.068Z,104255.97
2023-02-05T16:24:45.785Z,104238.91
2023-02-05T16:27:16.040Z,104237.19
2023-02-05T16:29:48.195Z,104239.63
2023-02-05T16:32:21.949Z,104242.03
2023-02-05T16:37:51.445Z,104243.59
2023-02-05T16:44:01.151Z,104256.22
2023-02-05T16:46:29.217Z,104260.09
2023-02-05T16:48:57.557Z,104260.34
2023-02-05T16:51:33.202Z,104264.47
2023-02-05T16:54:00.895Z,104277.91
2023-02-05T16:56:30.373Z,104276.16
2023-02-05T16:58:59.146Z,104274.00
2023-02-05T17:01:28.718Z,104278.53
2023-02-05T17:03:56.195Z,104278.94
2023-02-05T17:06:23.467Z,104288.84
2023-02-05T17:08:52.732Z,104303.97
2023-02-05T17:11:25.651Z,104306.34
2023-02-05T17:13:52.723Z,104297.44
2023-02-05T17:16:25.890Z,104302.56
2023-02-05T17:18:54.200Z,104300.16
2023-02-05T17:21:22.623Z,104303.38
2023-02-05T17:23:51.048Z,104306.59
2023-02-05T17:26:18.392Z,104306.13
2023-02-05T17:28:46.914Z,104303.69
2023-02-05T17:31:14.875Z,104293.94
2023-02-05T17:33:41.757Z,104312.06
2023-02-05T17:36:15.026Z,104313.53
2023-02-05T17:38:41.962Z,104307.22
2023-02-05T17:41:17.721Z,104304.81
2023-02-05T17:43:44.913Z,104309.75
2023-02-05T17:46:13.603Z,104311.44
2023-02-05T17:48:40.861Z,104308.78
2023-02-05T17:51:10.816Z,104303.81
2023-02-05T17:53:37.787Z,104299.63
2023-02-05T17:56:04.809Z,104299.19
2023-02-05T17:58:31.930Z,104298.94
2023-02-05T18:00:58.838Z,104308.03
2023-02-05T18:03:27.000Z,104304.34
2023-02-05T18:05:54.170Z,104298.22
2023-02-05T18:08:21.270Z,104288.09
2023-02-05T18:10:48.260Z,104298.22
2023-02-05T18:13:17.002Z,104306.44
2023-02-05T18:15:44.120Z,104301.69
2023-02-05T18:18:11.000Z,104304.50
2023-02-05T18:20:39.282Z,104304.50
2023-02-05T18:23:06.055Z,104300.59
2023-02-05T18:25:33.481Z,104300.81
2023-02-05T18:28:00.333Z,104290.41
2023-02-05T18:30:27.487Z,104285.66
2023-02-05T18:32:54.571Z,104287.59
2023-02-05T18:35:21.421Z,104287.38
2023-02-05T18:37:48.244Z,104284.56
2023-02-05T18:40:15.416Z,104278.94
2023-02-05T18:42:42.515Z,104277.91
2023-02-05T18:45:09.795Z,104296.75
2023-02-05T18:47:36.597Z,104303.47
2023-02-05T18:50:03.518Z,104318.03
2023-02-05T18:52:33.075Z,104314.97
2023-02-05T18:54:59.915Z,104302.94
2023-02-05T18:57:28.980Z,104293.41
2023-02-05T18:59:55.789Z,104302.31
2023-02-05T19:02:22.585Z,104299.25
2023-02-05T19:04:55.940Z,104304.03
2023-02-05T19:07:24.238Z,104305.53
2023-02-05T19:09:52.003Z,104307.88
2023-02-05T19:12:19.149Z,104317.78
2023-02-05T19:14:46.022Z,104295.50
2023-02-05T19:17:12.757Z,104304.56
2023-02-05T19:19:40.024Z,104322.09
2023-02-05T19:22:06.840Z,104320.75
2023-02-05T19:24:35.477Z,104327.03
2023-02-05T19:27:02.303Z,104327.63
2023-02-05T19:29:29.086Z,104325.44
2023-02-05T19:31:57.415Z,104320.69
2023-02-05T19:34:24.516Z,104328.66
2023-02-05T19:36:51.313Z,104324.75
2023-02-05T19:39:18.264Z,104325.41
2023-02-05T19:41:46.137Z,104325.59
2023-02-05T19:44:13.126Z,104328.22
2023-02-05T19:46:44.345Z,104325.41
2023-02-05T19:49:13.767Z,104320.63
2023-02-05T19:51:40.999Z,104322.34
2023-02-05T19:54:07.987Z,104324.06
2023-02-05T19:56:38.126Z,104311.06
2023-02-05T19:59:06.550Z,104314.97
2023-02-05T20:01:34.316Z,104319.53
2023-02-05T20:04:06.028Z,104326.88
2023-02-05T20:06:33.160Z,104334.47
2023-02-05T20:09:00.470Z,104338.16
2023-02-05T20:11:29.295Z,104344.88
2023-02-05T20:13:56.309Z,104331.03
2023-02-05T20:16:26.373Z,104341.44
2023-02-05T20:18:54.402Z,104339.69
2023-02-05T20:21:21.557Z,104338.19
2023-02-05T20:23:48.862Z,104326.91
2023-02-05T20:26:19.171Z,104335.84
2023-02-05T20:28:51.048Z,104340.38
2023-02-05T20:31:21.160Z,104339.16
2023-02-05T20:33:50.194Z,104338.75
2023-02-05T20:36:16.904Z,104337.63
2023-02-05T20:38:43.632Z,104323.41
2023-02-05T20:41:11.281Z,104314.97
2023-02-05T20:43:40.317Z,104327.56
2023-02-05T20:46:07.821Z,104311.75
2023-02-05T20:48:34.827Z,104312.25
2023-02-05T20:51:04.804Z,104296.53
2023-02-05T20:53:31.614Z,104301.75
2023-02-05T20:56:01.823Z,104303.69
2023-02-05T20:58:28.590Z,104302.00
2023-02-05T21:00:56.077Z,104305.28
2023-02-05T21:03:22.995Z,104301.22
2023-02-05T21:05:49.725Z,104293.84
2023-02-05T21:08:16.461Z,104289.94
2023-02-05T21:10:43.221Z,104286.41
2023-02-05T21:13:09.979Z,104274.94
2023-02-05T21:15:36.785Z,104287.50
2023-02-05T21:18:03.719Z,104279.78
2023-02-05T21:20:30.460Z,104273.00
2023-02-05T21:22:57.280Z,104264.88
2023-02-05T21:25:24.219Z,104270.56
2023-02-05T21:27:51.342Z,104283.97
2023-02-05T21:30:18.534Z,104282.03
2023-02-05T21:32:45.344Z,104273.38
2023-02-05T21:35:12.196Z,104275.72
2023-02-05T21:37:39.303Z,104275.88
2023-02-05T21:40:09.615Z,104283.00
2023-02-05T21:42:36.689Z,104286.41
2023-02-05T21:45:03.561Z,104277.28
2023-02-05T21:47:30.370Z,104278.78
2023-02-05T21:49:57.094Z,104274.41
2023-02-05T21:52:23.874Z,104266.34
2023-02-05T21:54:51.778Z,104265.88
2023-02-05T21:57:19.003Z,104253.06
2023-02-05T21:59:45.774Z,104256.50
2023-02-05T22:02:12.661Z,104264.25
2023-02-05T22:04:39.428Z,104268.31
2023-02-05T22:07:06.535Z,104265.88
2023-02-05T22:09:33.390Z,104265.41
2023-02-05T22:12:03.904Z,104265.78
2023-02-05T22:14:31.114Z,104271.81
2023-02-05T22:16:57.862Z,104266.81
2023-02-05T22:19:25.330Z,104271.09
2023-02-05T22:21:52.094Z,104270.63
2023-02-05T22:24:19.833Z,104261.75
2023-02-05T22:26:46.976Z,104273.63
2023-02-05T22:29:15.566Z,104272.75
2023-02-05T22:31:42.382Z,104282.69
2023-02-05T22:34:09.172Z,104284.66
2023-02-05T22:36:35.984Z,104282.94
2023-02-05T22:39:03.877Z,104283.78
2023-02-05T22:41:32.419Z,104293.31
2023-02-05T22:44:00.354Z,104293.56
2023-02-05T22:46:30.322Z,104298.94
2023-02-05T22:48:58.409Z,104284.47
2023-02-05T22:51:27.777Z,104276.88
2023-02-05T22:53:54.940Z,104275.41
2023-02-05T22:56:21.938Z,104275.16
2023-02-05T22:58:49.167Z,104273.44
2023-02-05T23:01:17.873Z,104270.38
2023-02-05T23:03:46.066Z,104264.16
2023-02-05T23:06:15.141Z,104269.78
2023-02-05T23:08:42.140Z,104269.09
2023-02-05T23:11:10.314Z,104270.78
2023-02-05T23:13:37.034Z,104266.41
2023-02-05T23:16:05.958Z,104274.41
2023-02-05T23:18:33.003Z,104286.25
2023-02-05T23:20:59.773Z,104279.06
2023-02-05T23:23:27.103Z,104278.59
2023-02-05T23:25:55.238Z,104276.38
2023-02-05T23:28:23.254Z,104279.63
2023-02-05T23:30:50.276Z,104271.78
2023-02-05T23:33:17.119Z,104281.47
2023-02-05T23:35:44.078Z,104266.06
2023-02-05T23:38:10.875Z,104263.59
2023-02-05T23:40:37.638Z,104258.56
2023-02-05T23:43:04.352Z,104257.25
2023-02-05T23:45:31.837Z,104267.44
2023-02-05T23:48:00.808Z,104262.41
2023-02-05T23:50:27.794Z,104260.22
2023-02-05T23:52:54.454Z,104252.63
2023-02-05T23:55:21.114Z,104250.16
2023-02-05T23:57:49.508Z,104252.75
